Time;durP1;ratioP1;P1;durP2;ratioP2;P2;SDS_P1;SDS_P2;PMS_P1;PMS_P2;Temp;Humidity;BMP_temperature;BMP_pressure;BME280_temperature;BME280_humidity;BME280_pressure;Samples;Min_cycle;Max_cycle;Signal;HPM_P1;HPM_P2
2022/06/01 00:01:07;;;;;;;6.20;4.27;;;;;;;17.16;90.21;95031.78;5115204;28;20442;-82
2022/06/01 00:03:38;;;;;;;10.53;4.40;;;;;;;17.17;89.90;95029.97;5062653;28;20454;-82
2022/06/01 00:06:05;;;;;;;18.03;4.40;;;;;;;17.07;90.16;95031.97;5115362;28;20443;-82
2022/06/01 00:08:34;;;;;;;6.63;4.20;;;;;;;17.06;90.49;95023.19;5115744;28;20546;-82
2022/06/01 00:11:01;;;;;;;5.23;3.90;;;;;;;17.13;90.14;95018.88;5062353;28;20443;-81
2022/06/01 00:13:29;;;;;;;7.47;4.43;;;;;;;17.21;90.79;95025.97;5115132;28;20439;-82
2022/06/01 00:15:56;;;;;;;4.60;4.20;;;;;;;17.28;90.52;95021.66;5115184;28;20978;-82
2022/06/01 00:18:24;;;;;;;4.63;4.20;;;;;;;17.29;91.28;95026.78;5114894;28;20485;-82
2022/06/01 00:20:51;;;;;;;7.63;4.63;;;;;;;17.30;90.71;95017.84;5115119;28;20812;-82
2022/06/01 00:23:19;;;;;;;7.30;4.87;;;;;;;17.30;91.27;95020.50;5062000;28;20423;-82
2022/06/01 00:25:47;;;;;;;7.37;4.63;;;;;;;17.32;91.74;95020.31;5114915;28;20453;-82
2022/06/01 00:28:14;;;;;;;5.40;4.90;;;;;;;17.31;91.17;95024.81;5114822;28;20447;-82
2022/06/01 00:30:41;;;;;;;5.40;4.90;;;;;;;17.32;91.01;95023.81;5115269;28;20447;-82
2022/06/01 00:33:09;;;;;;;6.33;4.30;;;;;;;17.30;90.87;95031.09;5115080;28;20532;-82
2022/06/01 00:35:37;;;;;;;5.07;4.57;;;;;;;17.26;90.29;95016.53;5115387;28;20443;-82
2022/06/01 00:38:04;;;;;;;11.30;4.73;;;;;;;17.23;89.67;95026.63;5114605;28;20447;-81
2022/06/01 00:40:31;;;;;;;8.20;4.93;;;;;;;17.23;89.56;95018.69;5114937;28;20453;-82
2022/06/01 00:43:01;;;;;;;7.20;4.23;;;;;;;17.19;89.47;95010.25;5114882;28;20443;-82
2022/06/01 00:45:30;;;;;;;7.60;3.73;;;;;;;17.16;89.86;95018.53;5114677;28;20442;-82
2022/06/01 00:47:57;;;;;;;6.33;4.13;;;;;;;17.10;89.91;95019.22;5114727;28;20941;-82
2022/06/01 00:50:28;;;;;;;8.33;4.00;;;;;;;17.05;89.80;95005.59;5114954;28;20435;-82
2022/06/01 00:53:00;;;;;;;10.00;4.50;;;;;;;17.04;90.32;95009.25;5114436;28;20451;-81
2022/06/01 00:55:31;;;;;;;5.93;3.67;;;;;;;17.03;90.27;94999.63;5061956;28;20424;-82
2022/06/01 00:58:07;;;;;;;5.60;4.50;;;;;;;17.03;90.84;95013.72;5114291;28;20500;-82
2022/06/01 01:00:38;;;;;;;4.33;3.80;;;;;;;17.07;90.58;95005.47;5114207;28;20443;-82
2022/06/01 01:03:10;;;;;;;7.70;4.77;;;;;;;17.07;90.13;95013.41;5114431;28;20446;-82
2022/06/01 01:05:40;;;;;;;5.60;4.13;;;;;;;17.02;90.14;95009.41;5114196;28;20921;-82
2022/06/01 01:08:07;;;;;;;6.90;4.40;;;;;;;16.99;90.51;95008.91;5114329;28;20447;-81
2022/06/01 01:10:35;;;;;;;7.97;4.40;;;;;;;16.98;90.13;95005.44;5114102;28;20435;-82
2022/06/01 01:13:06;;;;;;;7.90;4.40;;;;;;;17.01;90.12;95006.94;5114162;28;20461;-82
2022/06/01 01:15:36;;;;;;;4.80;3.60;;;;;;;16.98;90.01;95000.13;5113727;28;20442;-82
2022/06/01 01:18:07;;;;;;;4.13;3.73;;;;;;;16.96;90.37;94999.47;5113823;28;20442;-82
2022/06/01 01:20:36;;;;;;;5.57;3.87;;;;;;;16.97;89.86;95002.97;5113548;28;20496;-82
2022/06/01 01:23:22;;;;;;;4.90;4.40;;;;;;;16.94;89.80;94990.88;5113736;28;20452;-83
2022/06/01 01:25:51;;;;;;;6.07;4.10;;;;;;;16.89;89.72;94995.00;5113874;28;20921;-83
2022/06/01 01:28:18;;;;;;;4.53;4.10;;;;;;;16.80;90.09;94985.41;5113680;28;20443;-82
2022/06/01 01:30:52;;;;;;;7.87;4.07;;;;;;;16.74;90.67;94986.88;5113644;28;20455;-82
2022/06/01 01:33:22;;;;;;;6.03;4.33;;;;;;;16.76;90.47;94990.19;5113693;28;20471;-82
2022/06/01 01:35:52;;;;;;;6.20;3.97;;;;;;;16.70;90.89;94980.25;5113316;28;20529;-81
2022/06/01 01:38:26;;;;;;;4.60;4.20;;;;;;;16.67;91.18;94970.00;5113503;28;20454;-83
2022/06/01 01:41:05;;;;;;;4.77;3.80;;;;;;;16.57;92.28;94970.13;5113398;28;20441;-81
2022/06/01 01:43:33;;;;;;;5.10;4.10;;;;;;;16.46;92.32;94962.50;5113307;28;20442;-82
2022/06/01 01:46:01;;;;;;;4.50;3.33;;;;;;;16.51;92.50;94960.19;5113610;28;20450;-81
2022/06/01 01:48:30;;;;;;;10.93;4.80;;;;;;;16.51;92.20;94964.66;5076896;28;20485;-82
2022/06/01 01:50:57;;;;;;;4.70;4.30;;;;;;;16.47;92.63;94965.97;5113714;28;20439;-82
2022/06/01 01:53:24;;;;;;;4.50;4.10;;;;;;;16.52;92.50;94972.44;5113279;28;20446;-82
2022/06/01 01:55:56;;;;;;;4.70;4.30;;;;;;;16.47;92.82;94969.44;5113171;28;20439;-82
2022/06/01 01:58:31;;;;;;;5.23;4.40;;;;;;;16.49;92.24;94970.13;5113791;28;20677;-82
2022/06/01 02:01:04;;;;;;;5.27;4.77;;;;;;;16.50;91.92;94963.84;5113056;28;20443;-82
2022/06/01 02:03:39;;;;;;;9.10;4.43;;;;;;;16.52;92.61;94969.81;5113412;28;20937;-82
2022/06/01 02:06:12;;;;;;;4.70;4.30;;;;;;;16.53;92.41;94968.81;5113514;28;20772;-82
2022/06/01 02:08:46;;;;;;;4.50;3.70;;;;;;;16.60;92.24;94976.91;5112928;28;20477;-82
2022/06/01 02:14:10;;;;;;;6.67;3.93;;;;;;;16.55;91.06;94993.31;5112873;28;20423;-81
2022/06/01 02:16:42;;;;;;;15.53;4.80;;;;;;;16.29;92.50;94992.59;5112772;28;20447;-82
2022/06/01 02:19:14;;;;;;;7.90;4.93;;;;;;;16.23;93.40;94987.97;5113044;28;20486;-82
2022/06/01 02:21:41;;;;;;;6.23;4.60;;;;;;;16.23;93.60;94991.44;5112771;28;20443;-82
2022/06/01 02:24:08;;;;;;;5.27;4.87;;;;;;;16.17;93.97;94983.28;5112738;28;20530;-82
2022/06/01 02:26:37;;;;;;;5.77;4.87;;;;;;;16.07;94.74;94988.72;5113237;28;20474;-81
2022/06/01 02:29:10;;;;;;;8.07;6.33;;;;;;;15.60;97.90;94981.28;5112785;28;20870;-81
2022/06/01 02:31:39;;;;;;;9.53;7.10;;;;;;;15.35;100.00;94982.97;5112529;28;20787;-82
2022/06/01 02:34:07;;;;;;;7.80;7.00;;;;;;;15.38;99.79;94990.56;5112789;28;20532;-82
2022/06/01 02:36:35;;;;;;;10.70;6.27;;;;;;;15.45;99.64;94993.41;5112965;28;20521;-82
2022/06/01 02:39:05;;;;;;;7.17;6.47;;;;;;;15.47;99.92;94992.25;5112679;28;20478;-81
2022/06/01 02:44:18;;;;;;;9.70;6.27;;;;;;;15.69;100.00;95000.69;5112706;28;20438;-81
2022/06/01 02:46:45;;;;;;;9.27;7.80;;;;;;;15.76;99.77;94999.88;5112600;28;20454;-82
2022/06/01 02:49:13;;;;;;;11.43;7.83;;;;;;;15.84;99.59;95003.53;5112625;28;20451;-82
2022/06/01 02:51:40;;;;;;;20.17;8.67;;;;;;;15.89;99.16;95002.06;5112751;28;20439;-82
2022/06/01 02:54:08;;;;;;;11.50;8.40;;;;;;;15.98;99.03;94998.47;5112470;28;20929;-82
2022/06/01 02:56:35;;;;;;;19.30;9.37;;;;;;;16.07;98.92;95001.97;5112893;28;20439;-82
2022/06/01 02:59:02;;;;;;;13.70;10.00;;;;;;;16.09;97.67;95002.63;5112666;28;20486;-82
2022/06/01 03:01:31;;;;;;;9.60;8.60;;;;;;;16.13;98.14;94997.84;5116549;28;20438;-82
2022/06/01 03:03:58;;;;;;;14.00;8.30;;;;;;;16.16;97.15;94997.53;5064834;28;20463;-82
2022/06/01 03:06:25;;;;;;;11.13;8.77;;;;;;;16.20;97.50;94999.72;5064222;28;20445;-81
2022/06/01 03:08:52;;;;;;;13.17;7.63;;;;;;;16.20;96.42;94997.06;5064178;28;20454;-82
2022/06/01 03:11:19;;;;;;;5.73;5.23;;;;;;;16.19;96.09;94997.19;5116413;28;20450;-82
2022/06/01 03:13:45;;;;;;;6.63;6.00;;;;;;;16.19;95.75;94995.41;5116486;28;20442;-82
2022/06/01 03:16:12;;;;;;;13.03;7.80;;;;;;;15.96;96.63;94992.53;5116571;28;20443;-81
2022/06/01 03:18:40;;;;;;;13.23;7.60;;;;;;;15.77;97.08;94998.06;5116196;28;20457;-81
2022/06/01 03:21:08;;;;;;;7.23;6.40;;;;;;;15.96;97.11;95013.69;5116063;28;20439;-81
2022/06/01 03:23:35;;;;;;;13.43;6.73;;;;;;;16.07;97.19;95015.22;5116157;28;20451;-82
2022/06/01 03:26:01;;;;;;;6.73;5.80;;;;;;;16.27;96.87;95016.59;5080243;28;20532;-81
2022/06/01 03:28:28;;;;;;;6.33;5.70;;;;;;;16.58;96.24;95022.13;5116124;28;20445;-82
2022/06/01 03:30:55;;;;;;;6.90;4.87;;;;;;;16.83;94.18;95023.00;5079757;28;20434;-81
2022/06/01 03:33:23;;;;;;;10.17;5.50;;;;;;;17.06;92.06;95017.03;5116077;28;20481;-81
2022/06/01 03:35:52;;;;;;;9.17;4.73;;;;;;;17.31;90.48;95026.63;5116358;28;20496;-81
2022/06/01 03:38:19;;;;;;;6.07;4.70;;;;;;;17.63;88.22;95023.91;5116095;28;21155;-81
2022/06/01 03:40:46;;;;;;;4.67;4.27;;;;;;;17.97;85.96;95033.47;5115903;28;20478;-82
2022/06/01 03:43:13;;;;;;;10.60;4.53;;;;;;;18.28;84.73;95025.53;5013936;28;20905;-82
2022/06/01 03:45:59;;;;;;;7.50;5.60;;;;;;;18.65;83.06;95034.66;5115944;28;20445;-81
2022/06/01 03:48:28;;;;;;;7.40;5.40;;;;;;;19.04;81.45;95037.19;5115503;28;20439;-82
2022/06/01 03:50:57;;;;;;;5.80;5.27;;;;;;;19.32;80.66;95035.63;5116182;28;20447;-82
2022/06/01 03:53:24;;;;;;;11.33;7.00;;;;;;;19.54;78.90;95031.31;5115644;28;20454;-81
2022/06/01 03:55:53;;;;;;;11.90;6.07;;;;;;;19.82;78.17;95038.69;5115919;28;20823;-79
2022/06/01 03:58:22;;;;;;;7.77;6.90;;;;;;;19.80;77.45;95042.34;5117569;28;20479;-86
2022/06/01 04:00:50;;;;;;;7.50;6.40;;;;;;;19.69;77.82;95042.81;5116570;28;20490;-90
2022/06/01 04:03:18;;;;;;;12.80;7.33;;;;;;;19.89;77.98;95039.59;5117020;28;20431;-87
2022/06/01 04:05:45;;;;;;;8.23;7.43;;;;;;;20.08;77.06;95047.88;5115710;28;20447;-87
2022/06/01 04:08:16;;;;;;;9.20;6.50;;;;;;;20.18;77.46;95047.56;5116383;28;20454;-89
2022/06/01 04:10:44;;;;;;;12.70;8.07;;;;;;;20.58;76.68;95050.78;5032207;28;20455;-88
2022/06/01 04:13:11;;;;;;;7.60;6.87;;;;;;;20.82;73.18;95047.78;5013510;28;20447;-82
2022/06/01 04:15:38;;;;;;;9.20;7.47;;;;;;;20.99;72.94;95046.50;5013894;28;20935;-83
2022/06/01 04:18:05;;;;;;;8.63;7.53;;;;;;;21.03;72.73;95050.44;5013821;28;20458;-81
2022/06/01 04:20:33;;;;;;;13.20;8.97;;;;;;;20.98;72.81;95060.84;4980974;28;20497;-81
2022/06/01 04:23:01;;;;;;;15.67;8.70;;;;;;;20.51;74.13;95047.19;5013550;28;20456;-82
2022/06/01 04:25:31;;;;;;;16.40;7.87;;;;;;;20.23;75.50;95055.84;5013659;28;20539;-82
2022/06/01 04:27:57;;;;;;;17.43;9.40;;;;;;;19.35;78.95;95045.09;5025722;28;20440;-81
2022/06/01 04:30:24;;;;;;;9.03;7.93;;;;;;;18.91;81.39;95042.28;5043709;28;20420;-82
2022/06/01 04:32:53;;;;;;;13.70;8.67;;;;;;;18.71;82.66;95037.44;5095315;28;20479;-85
2022/06/01 04:35:22;;;;;;;15.70;8.80;;;;;;;18.64;83.92;95043.63;5095508;28;20448;-84
2022/06/01 04:37:49;;;;;;;19.40;11.33;;;;;;;18.41;84.79;95043.56;5096895;28;20429;-85
2022/06/01 04:40:17;;;;;;;13.00;10.40;;;;;;;18.29;86.30;95042.31;5095353;28;20475;-81
2022/06/01 04:42:46;;;;;;;18.73;11.40;;;;;;;17.94;88.91;95033.81;5095193;28;20447;-82
2022/06/01 04:45:15;;;;;;;16.57;12.23;;;;;;;17.70;90.74;95041.88;5095617;28;20478;-81
2022/06/01 04:47:42;;;;;;;16.67;12.83;;;;;;;17.72;91.42;95032.72;5095420;28;20436;-83
2022/06/01 04:50:10;;;;;;;27.07;18.10;;;;;;;17.98;91.69;95029.81;5095553;28;20436;-82
2022/06/01 04:52:37;;;;;;;44.40;21.10;;;;;;;18.42;90.52;95040.72;5095225;28;20448;-82
2022/06/01 04:55:07;;;;;;;29.97;18.40;;;;;;;19.00;88.22;95039.38;5095196;28;20815;-82
2022/06/01 04:57:34;;;;;;;31.83;14.73;;;;;;;19.66;85.28;95043.19;5110117;28;20957;-83
2022/06/01 05:00:02;;;;;;;17.43;12.43;;;;;;;20.39;80.90;95050.31;5115730;28;20586;-85
2022/06/01 05:02:29;;;;;;;17.97;11.97;;;;;;;21.08;78.88;95046.38;5089238;28;20536;-84
2022/06/01 05:04:56;;;;;;;12.23;7.07;;;;;;;21.72;73.57;95055.19;5108441;28;20492;-84
2022/06/01 05:07:23;;;;;;;6.37;4.40;;;;;;;22.23;69.91;95054.91;5102747;28;20811;-84
2022/06/01 05:09:50;;;;;;;8.17;4.83;;;;;;;22.79;67.83;95057.41;5109201;28;20456;-81
2022/06/01 05:12:17;;;;;;;4.33;3.13;;;;;;;23.21;65.02;95061.66;5094777;28;20524;-84
2022/06/01 05:14:45;;;;;;;4.33;3.67;;;;;;;23.53;63.51;95056.53;5095230;28;20443;-83
2022/06/01 05:17:14;;;;;;;9.70;4.03;;;;;;;23.74;62.18;95059.06;5111142;28;20538;-84
2022/06/01 05:19:41;;;;;;;6.00;3.67;;;;;;;23.99;62.90;95064.56;5103757;28;20493;-84
2022/06/01 05:22:07;;;;;;;7.23;4.13;;;;;;;24.30;61.13;95061.25;5115080;28;20453;-83
2022/06/01 05:24:34;;;;;;;10.53;4.70;;;;;;;24.71;60.68;95066.25;5113878;28;20450;-82
2022/06/01 05:27:01;;;;;;;9.27;4.10;;;;;;;25.10;58.99;95070.63;5112903;28;20455;-83
2022/06/01 05:29:28;;;;;;;6.93;3.80;;;;;;;25.51;58.63;95061.28;5098425;28;20985;-83
2022/06/01 05:31:55;;;;;;;9.60;4.67;;;;;;;25.78;56.23;95064.63;5105208;28;20472;-83
2022/06/01 05:34:23;;;;;;;4.90;4.37;;;;;;;25.94;55.89;95066.75;5111533;28;20507;-84
2022/06/01 05:36:51;;;;;;;5.87;4.30;;;;;;;26.20;55.13;95066.50;5114649;28;20450;-83
2022/06/01 05:39:18;;;;;;;6.53;3.87;;;;;;;26.42;54.80;95066.94;5114515;28;20990;-82
2022/06/01 05:41:45;;;;;;;9.20;3.80;;;;;;;26.57;53.82;95066.53;5114566;28;20495;-83
2022/06/01 05:44:11;;;;;;;8.53;5.27;;;;;;;26.75;53.75;95071.09;5114941;28;20747;-82
2022/06/01 05:46:38;;;;;;;12.50;8.03;;;;;;;26.46;56.43;95051.97;5114893;28;20439;-81
2022/06/01 05:49:05;;;;;;;9.90;8.70;;;;;;;25.49;59.82;95060.69;5114236;28;20447;-85
2022/06/01 05:51:35;;;;;;;14.03;10.00;;;;;;;25.11;61.15;95058.03;5114187;28;20455;-83
2022/06/01 05:54:02;;;;;;;13.93;10.67;;;;;;;24.44;64.54;95059.34;5079280;28;20435;-82
2022/06/01 05:56:29;;;;;;;13.23;10.17;;;;;;;24.09;66.07;95051.56;5114383;28;20454;-83
2022/06/01 05:58:56;;;;;;;20.50;10.87;;;;;;;23.84;67.31;95046.03;5114395;28;20449;-83
2022/06/01 06:01:23;;;;;;;17.93;11.13;;;;;;;23.63;67.31;95040.91;5114160;28;20999;-82
2022/06/01 06:03:50;;;;;;;15.43;11.00;;;;;;;23.56;68.85;95048.13;5114529;28;20443;-84
2022/06/01 06:06:17;;;;;;;12.10;10.23;;;;;;;23.87;66.82;95045.63;5114129;28;20909;-82
2022/06/01 06:08:49;;;;;;;15.10;11.20;;;;;;;23.75;66.22;95041.94;5113973;28;20775;-83
2022/06/01 06:11:18;;;;;;;16.53;9.70;;;;;;;23.69;66.16;95040.88;5114006;28;20921;-81
2022/06/01 06:13:45;;;;;;;19.07;10.80;;;;;;;23.85;66.16;95041.50;5114556;28;20454;-81
2022/06/01 06:16:14;;;;;;;12.67;10.90;;;;;;;24.43;66.57;95037.06;5078144;28;20439;-82
2022/06/01 06:18:41;;;;;;;10.90;9.73;;;;;;;25.01;64.69;95039.72;5078086;28;20439;-80
2022/06/01 06:21:08;;;;;;;12.47;9.30;;;;;;;25.46;63.34;95039.63;5078393;28;20980;-83
2022/06/01 06:23:35;;;;;;;18.47;9.30;;;;;;;25.89;61.22;95037.84;5114109;28;20451;-82
2022/06/01 06:26:04;;;;;;;14.87;11.23;;;;;;;26.12;60.73;95029.13;5113610;28;20852;-81
2022/06/01 06:28:32;;;;;;;11.40;10.20;;;;;;;26.47;58.55;95033.94;5112749;28;20438;-82
2022/06/01 06:30:59;;;;;;;13.60;10.40;;;;;;;26.51;59.12;95035.97;5113009;28;20933;-82
2022/06/01 06:33:26;;;;;;;13.00;10.40;;;;;;;26.59;58.24;95036.69;5113146;28;20462;-82
2022/06/01 06:36:01;;;;;;;19.80;12.37;;;;;;;26.62;59.13;95036.28;5112510;28;20447;-82
2022/06/01 06:38:30;;;;;;;19.90;11.13;;;;;;;26.59;58.58;95029.44;5112713;28;20441;-82
2022/06/01 06:40:58;;;;;;;13.00;10.83;;;;;;;26.44;58.70;95037.91;5112521;28;20494;-82
2022/06/01 06:43:28;;;;;;;12.20;9.30;;;;;;;26.59;57.82;95028.63;5112585;28;20825;-82
2022/06/01 06:46:00;;;;;;;13.53;8.77;;;;;;;26.64;57.79;95028.78;5076490;28;20433;-83
2022/06/01 06:48:28;;;;;;;13.83;8.80;;;;;;;26.30;58.49;95028.31;5112613;28;20446;-82
2022/06/01 06:50:55;;;;;;;14.20;9.13;;;;;;;26.14;59.92;95023.53;5112605;28;20495;-82
2022/06/01 06:53:23;;;;;;;12.50;8.47;;;;;;;26.18;60.13;95020.16;5112764;28;20447;-82
2022/06/01 06:55:50;;;;;;;9.43;7.93;;;;;;;26.52;61.37;95034.91;5112627;28;20474;-82
2022/06/01 06:58:17;;;;;;;11.30;10.20;;;;;;;25.72;62.71;95017.91;5113642;28;20521;-82
2022/06/01 07:00:46;;;;;;;15.77;10.97;;;;;;;25.55;66.56;95020.31;5113568;28;20490;-82
2022/06/01 07:03:13;;;;;;;11.73;10.30;;;;;;;25.77;65.81;95019.97;5113612;28;20809;-82
2022/06/01 07:08:24;;;;;;;13.90;10.53;;;;;;;26.14;63.54;95016.28;5113432;28;20431;-81
2022/06/01 07:10:51;;;;;;;13.07;11.30;;;;;;;26.05;62.73;95019.50;5077735;28;21192;-82
2022/06/01 07:13:18;;;;;;;14.23;12.47;;;;;;;26.02;64.10;95018.06;5113858;28;20451;-82
2022/06/01 07:15:46;;;;;;;15.97;11.93;;;;;;;26.32;65.01;95028.94;5113562;28;20450;-81
2022/06/01 07:18:13;;;;;;;15.53;12.47;;;;;;;25.76;64.89;95021.84;5101955;28;20449;-82
2022/06/01 07:20:40;;;;;;;16.80;13.30;;;;;;;25.62;65.34;95025.63;5093324;28;20543;-82
2022/06/01 07:23:08;;;;;;;17.30;15.07;;;;;;;25.29;66.40;95026.72;5106118;28;20446;-82
2022/06/01 07:25:35;;;;;;;15.00;12.80;;;;;;;25.64;64.67;95028.94;5060191;28;20450;-82
2022/06/01 07:28:01;;;;;;;17.97;12.67;;;;;;;25.73;66.12;95019.56;5098998;28;20933;-82
2022/06/01 07:30:28;;;;;;;15.97;14.03;;;;;;;25.48;65.73;95019.56;5075645;28;21199;-81
2022/06/01 07:32:57;;;;;;;16.03;14.40;;;;;;;25.72;65.68;95017.91;5092599;28;20475;-82
2022/06/01 07:35:23;;;;;;;17.13;13.97;;;;;;;25.13;66.58;95013.81;5092847;28;20447;-82
2022/06/01 07:43:23;;;;;;;14.43;12.90;;;;;;;25.82;66.89;95007.50;5093156;28;20423;-82
2022/06/01 07:45:50;;;;;;;15.10;12.67;;;;;;;25.98;66.43;95016.03;5094919;28;20446;-82
2022/06/01 07:48:19;;;;;;;21.23;13.73;;;;;;;25.74;64.67;95023.09;5105701;28;20945;-83
2022/06/01 07:50:50;;;;;;;12.30;11.10;;;;;;;26.09;65.12;95013.44;5096481;28;21025;-82
2022/06/01 07:53:18;;;;;;;15.33;12.90;;;;;;;26.30;64.79;95012.16;5106566;28;21014;-82
2022/06/01 07:55:45;;;;;;;19.30;12.23;;;;;;;26.23;64.41;95006.84;5116058;28;20451;-82
2022/06/01 07:58:12;;;;;;;13.13;11.47;;;;;;;26.53;64.03;95017.72;5116637;28;20446;-82
2022/06/01 08:00:39;;;;;;;12.67;11.37;;;;;;;26.58;62.62;95016.22;5116326;28;20486;-81
2022/06/01 08:03:11;;;;;;;19.00;11.57;;;;;;;26.59;62.25;95009.78;5116910;28;20886;-82
2022/06/01 08:05:40;;;;;;;13.07;11.60;;;;;;;26.89;63.51;95010.66;5116839;28;20496;-82
2022/06/01 08:08:07;;;;;;;18.03;11.50;;;;;;;26.94;62.38;95013.47;5116672;28;20442;-83
2022/06/01 08:10:36;;;;;;;19.60;12.30;;;;;;;26.97;61.01;95013.03;5101021;28;20485;-82
2022/06/01 08:13:09;;;;;;;16.47;11.83;;;;;;;27.03;62.07;95014.81;5095842;28;20440;-83
2022/06/01 08:15:39;;;;;;;18.20;12.30;;;;;;;26.93;61.19;95017.22;5096336;28;20443;-82
2022/06/01 08:18:06;;;;;;;21.43;9.83;;;;;;;27.08;61.69;95009.56;5095637;28;20442;-85
2022/06/01 08:20:33;;;;;;;12.10;10.37;;;;;;;27.05;61.10;95010.03;5095499;28;21120;-82
2022/06/01 08:23:02;;;;;;;11.37;10.27;;;;;;;26.95;62.89;95001.66;5095994;28;20444;-81
2022/06/01 08:25:30;;;;;;;18.90;10.37;;;;;;;26.73;62.73;95000.50;5096445;28;20485;-82
2022/06/01 08:27:57;;;;;;;13.47;9.53;;;;;;;26.73;61.85;95003.19;5095605;28;20448;-83
2022/06/01 08:30:27;;;;;;;10.63;9.33;;;;;;;26.97;63.47;95004.94;5095559;28;20805;-85
2022/06/01 08:32:54;;;;;;;12.97;7.90;;;;;;;26.81;62.34;95000.19;5096063;28;20489;-83
2022/06/01 08:35:25;;;;;;;10.10;9.10;;;;;;;26.81;61.05;95009.06;5095623;28;20934;-83
2022/06/01 08:37:52;;;;;;;10.10;7.93;;;;;;;26.92;59.22;94998.59;5095578;28;20444;-83
2022/06/01 08:40:23;;;;;;;12.10;7.77;;;;;;;26.98;58.99;94998.50;5060661;28;20452;-83
2022/06/01 08:42:56;;;;;;;10.90;7.57;;;;;;;27.19;59.07;94999.91;5095613;28;20471;-81
2022/06/01 08:45:24;;;;;;;9.13;8.00;;;;;;;27.12;60.28;94999.16;5095083;28;20452;-81
2022/06/01 08:47:51;;;;;;;11.40;8.80;;;;;;;27.03;57.93;95000.53;5095271;28;20451;-81
2022/06/01 08:50:25;;;;;;;8.27;7.40;;;;;;;26.91;57.26;94999.66;5095675;28;20448;-82
2022/06/01 08:52:53;;;;;;;8.97;8.07;;;;;;;26.80;59.49;95001.22;5095431;28;20444;-81
2022/06/01 08:55:21;;;;;;;8.10;6.77;;;;;;;26.64;56.13;94999.19;5062099;28;20514;-82
2022/06/01 08:57:56;;;;;;;9.90;7.53;;;;;;;26.98;59.16;95006.59;5096029;28;21477;-83
2022/06/01 09:00:28;;;;;;;14.60;8.00;;;;;;;27.24;60.16;94997.31;5115313;28;20495;-83
2022/06/01 09:03:03;;;;;;;12.93;9.10;;;;;;;27.16;59.05;95001.16;5115632;28;20932;-81
2022/06/01 09:05:41;;;;;;;10.10;8.80;;;;;;;27.17;60.87;95008.19;5115637;28;20442;-82
2022/06/01 09:08:16;;;;;;;9.10;8.30;;;;;;;27.17;60.60;95005.47;5115159;28;20446;-80
2022/06/01 09:11:02;;;;;;;9.73;8.67;;;;;;;27.11;62.08;94992.94;5114679;28;20438;-83
2022/06/01 09:13:35;;;;;;;8.53;7.63;;;;;;;27.36;60.38;94990.06;5095245;28;20771;-82
2022/06/01 09:16:06;;;;;;;9.17;7.40;;;;;;;27.43;60.20;94992.66;5092681;28;20436;-81
2022/06/01 09:18:40;;;;;;;14.43;8.30;;;;;;;27.46;56.84;94990.31;5095048;28;20444;-80
2022/06/01 09:24:05;;;;;;;17.57;7.73;;;;;;;27.50;55.31;94979.09;5094658;28;20434;-82
2022/06/01 09:26:33;;;;;;;11.00;8.10;;;;;;;27.39;57.31;94980.69;5092675;28;20447;-81
2022/06/01 09:29:02;;;;;;;8.60;6.40;;;;;;;27.49;58.26;94980.97;5094869;28;20455;-82
2022/06/01 09:31:36;;;;;;;8.93;6.87;;;;;;;27.59;54.23;94986.59;5102648;28;20794;-83
2022/06/01 09:34:27;;;;;;;10.87;6.17;;;;;;;27.46;50.00;94987.63;5079629;28;20439;-83
2022/06/01 09:36:57;;;;;;;11.37;6.33;;;;;;;27.25;51.12;94987.38;5051847;28;20515;-82
2022/06/01 09:39:25;;;;;;;6.03;5.27;;;;;;;27.34;50.23;94978.72;5051881;28;20449;-82
2022/06/01 09:42:06;;;;;;;8.93;5.90;;;;;;;27.34;51.81;94981.41;5051665;28;21026;-82
2022/06/01 09:44:34;;;;;;;7.90;5.60;;;;;;;27.41;52.11;94976.72;5051657;28;20445;-81
2022/06/01 09:47:03;;;;;;;6.10;5.50;;;;;;;27.46;51.66;94973.31;5051845;28;20442;-82
2022/06/01 09:49:32;;;;;;;10.83;5.70;;;;;;;27.54;52.22;94978.38;5051687;28;20518;-81
2022/06/01 09:52:02;;;;;;;7.80;5.80;;;;;;;27.51;49.38;94969.94;5051623;28;20445;-81
2022/06/01 09:54:31;;;;;;;7.50;6.50;;;;;;;27.47;54.92;94966.91;5050740;28;20532;-82
2022/06/01 09:57:16;;;;;;;8.30;6.03;;;;;;;27.45;55.14;94967.09;5033638;28;20437;-82
2022/06/01 10:08:09;;;;;;;6.63;6.03;;;;;;;27.38;54.83;94957.50;5050436;28;20437;-81
2022/06/01 10:10:38;;;;;;;9.27;6.03;;;;;;;27.43;53.64;94960.31;5049673;28;20523;-81
2022/06/01 10:13:07;;;;;;;6.20;5.67;;;;;;;27.40;53.40;94963.47;5062303;28;20933;-82
2022/06/01 10:15:39;;;;;;;6.87;5.50;;;;;;;27.39;56.29;94956.44;5112906;28;20450;-82
2022/06/01 10:18:12;;;;;;;12.73;5.80;;;;;;;27.51;56.63;94964.56;5112950;28;21013;-86
2022/06/01 10:20:45;;;;;;;7.87;5.27;;;;;;;27.57;52.29;94952.84;5098228;28;20455;-82
2022/06/01 10:23:18;;;;;;;7.00;5.00;;;;;;;27.11;50.61;94957.91;5093188;28;20515;-81
2022/06/01 10:25:51;;;;;;;9.93;5.30;;;;;;;27.14;54.31;94957.44;5106295;28;20455;-81
2022/06/01 10:28:26;;;;;;;5.70;5.07;;;;;;;27.16;52.05;94952.66;5099700;28;20452;-80
2022/06/01 10:30:56;;;;;;;4.40;4.00;;;;;;;27.15;47.21;94952.88;5102939;28;20450;-81
2022/06/01 10:33:26;;;;;;;6.43;5.13;;;;;;;27.27;49.45;94955.63;5108294;28;20490;-81
2022/06/01 10:36:00;;;;;;;12.83;4.30;;;;;;;27.31;47.48;94954.91;5109364;28;20450;-80
2022/06/01 10:38:30;;;;;;;4.37;3.97;;;;;;;27.37;42.64;94942.38;5102431;28;20457;-79
2022/06/01 10:41:02;;;;;;;5.00;4.10;;;;;;;27.42;45.44;94937.09;5109358;28;20450;-79
2022/06/01 10:43:44;;;;;;;13.10;5.10;;;;;;;27.50;47.91;94947.56;5113258;28;20438;-81
2022/06/01 10:46:27;;;;;;;5.20;4.70;;;;;;;27.67;48.55;94937.72;5112892;28;20443;-83
2022/06/01 10:49:05;;;;;;;6.57;5.13;;;;;;;27.80;50.14;94944.78;5112627;28;20446;-81
2022/06/01 10:51:35;;;;;;;8.67;4.50;;;;;;;27.82;47.63;94936.44;5112676;28;20812;-81
2022/06/01 10:54:07;;;;;;;10.13;4.97;;;;;;;27.79;44.53;94935.06;5112556;28;20444;-81
2022/06/01 10:56:34;;;;;;;9.53;3.67;;;;;;;27.80;44.20;94938.56;5113585;28;20446;-80
2022/06/01 10:59:08;;;;;;;4.00;3.33;;;;;;;27.92;42.96;94936.66;5112592;28;20446;-82
2022/06/01 11:01:46;;;;;;;7.07;3.90;;;;;;;28.00;46.90;94936.28;5076803;28;20506;-81
2022/06/01 11:04:41;;;;;;;7.00;4.07;;;;;;;28.12;48.59;94926.31;5113326;28;20775;-81
2022/06/01 11:07:37;;;;;;;7.13;4.37;;;;;;;28.20;48.31;94923.25;5113185;28;20454;-82
2022/06/01 11:10:13;;;;;;;8.77;4.73;;;;;;;28.18;45.44;94925.38;5113105;28;20960;-82
2022/06/01 11:12:53;;;;;;;10.57;5.13;;;;;;;28.31;47.56;94924.28;5112996;28;20447;-82
2022/06/01 11:15:27;;;;;;;6.27;5.67;;;;;;;28.59;46.90;94918.91;5111677;28;20774;-81
2022/06/01 11:18:02;;;;;;;9.60;4.60;;;;;;;28.61;45.41;94913.25;5113267;28;20443;-80
2022/06/01 11:20:58;;;;;;;4.03;3.63;;;;;;;28.77;46.15;94919.78;5112929;28;20499;-81
2022/06/01 11:23:46;;;;;;;4.07;3.40;;;;;;;28.44;42.23;94915.94;5053789;28;20912;-81
2022/06/01 11:26:27;;;;;;;3.80;3.20;;;;;;;28.56;47.17;94919.41;5054059;28;20764;-80
2022/06/01 11:29:11;;;;;;;5.10;4.60;;;;;;;28.35;42.19;94911.97;5053891;28;20788;-81
2022/06/01 11:31:42;;;;;;;3.80;3.40;;;;;;;28.41;41.73;94904.78;5053758;28;20466;-81
2022/06/01 11:34:14;;;;;;;3.50;3.10;;;;;;;28.27;37.87;94905.06;5053955;28;20515;-81
2022/06/01 11:36:49;;;;;;;5.57;3.27;;;;;;;27.94;39.77;94907.56;5053839;28;20456;-81
2022/06/01 11:39:25;;;;;;;3.27;2.83;;;;;;;27.91;39.12;94899.97;5053837;28;20437;-80
2022/06/01 11:41:59;;;;;;;4.03;3.63;;;;;;;27.99;43.16;94896.88;5053943;28;20488;-81
2022/06/01 11:44:31;;;;;;;6.73;3.93;;;;;;;28.16;38.57;94895.09;5053699;28;20456;-80
2022/06/01 11:47:03;;;;;;;3.27;2.97;;;;;;;28.24;41.50;94900.16;5053753;28;20454;-80
2022/06/01 11:49:37;;;;;;;4.70;3.33;;;;;;;28.20;41.01;94892.75;5053142;28;20465;-80
2022/06/01 11:52:32;;;;;;;9.83;3.17;;;;;;;28.12;41.71;94891.25;5051376;28;20460;-81
2022/06/01 11:55:25;;;;;;;3.50;3.20;;;;;;;28.23;39.96;94890.38;5013880;28;20459;-80
2022/06/01 11:57:54;;;;;;;6.40;3.27;;;;;;;28.28;40.94;94890.50;5013607;28;20446;-81
2022/06/01 12:00:31;;;;;;;6.70;3.17;;;;;;;28.37;38.83;94886.38;5031372;28;20456;-80
2022/06/01 12:03:22;;;;;;;4.23;2.83;;;;;;;28.46;39.88;94888.69;5053278;28;20477;-80
2022/06/01 12:06:02;;;;;;;3.90;3.47;;;;;;;28.53;41.04;94881.25;5053433;28;20445;-81